Time;durP1;ratioP1;P1;durP2;ratioP2;P2;SDS_P1;SDS_P2;PMS_P1;PMS_P2;Temp;Humidity;BMP_temperature;BMP_pressure;BME280_temperature;BME280_humidity;BME280_pressure;Samples;Min_cycle;Max_cycle;Signal;HPM_P1;HPM_P2
2021/12/10 00:01:52;;;;;;;19.70;5.60;;;3.60;99.90;;;;;;5054261;28;20416;-62
2021/12/10 00:04:29;;;;;;;12.27;4.73;;;3.60;99.90;;;;;;5067328;28;20576;-62
2021/12/10 00:07:01;;;;;;;18.70;5.20;;;3.70;99.90;;;;;;5064648;28;20286;-62
2021/12/10 00:09:31;;;;;;;17.40;5.10;;;3.70;99.90;;;;;;5066514;28;20204;-62
2021/12/10 00:12:06;;;;;;;12.37;5.10;;;3.70;99.90;;;;;;5066453;28;20188;-63
2021/12/10 00:14:36;;;;;;;9.77;4.67;;;3.80;99.90;;;;;;5066906;28;20729;-62
2021/12/10 00:17:08;;;;;;;10.60;4.43;;;3.80;99.90;;;;;;5075856;28;20219;-62
2021/12/10 00:19:43;;;;;;;17.70;4.83;;;3.80;99.90;;;;;;5067813;28;20200;-62
2021/12/10 00:22:15;;;;;;;10.67;4.77;;;3.90;99.90;;;;;;5065822;28;20262;-62
2021/12/10 00:24:46;;;;;;;16.20;4.63;;;4.00;99.90;;;;;;5062197;28;20208;-62
2021/12/10 00:27:26;;;;;;;8.93;4.10;;;4.00;99.90;;;;;;5074931;28;20195;-62
2021/12/10 00:30:03;;;;;;;14.43;4.60;;;4.00;99.90;;;;;;5072033;28;20682;-63
2021/12/10 00:32:36;;;;;;;16.40;5.17;;;4.00;99.90;;;;;;5068272;28;20210;-62
2021/12/10 00:35:09;;;;;;;9.43;4.27;;;4.00;99.90;;;;;;5069031;28;20211;-62
2021/12/10 00:37:38;;;;;;;6.07;4.30;;;4.10;99.90;;;;;;5072916;28;20203;-62
2021/12/10 00:40:12;;;;;;;10.20;4.07;;;4.10;99.90;;;;;;5068455;28;20260;-62
2021/12/10 00:42:42;;;;;;;8.10;4.23;;;4.10;99.90;;;;;;5072025;28;20549;-62
2021/12/10 00:45:13;;;;;;;10.63;4.20;;;4.20;99.90;;;;;;5068846;28;20662;-63
2021/12/10 00:47:42;;;;;;;6.43;4.17;;;4.20;99.90;;;;;;5069134;28;20195;-62
2021/12/10 00:50:13;;;;;;;6.53;3.63;;;4.30;99.90;;;;;;5069641;28;20208;-62
2021/12/10 00:52:43;;;;;;;7.73;3.70;;;4.30;99.90;;;;;;5072348;28;20798;-62
2021/12/10 00:55:13;;;;;;;4.60;3.13;;;4.40;99.90;;;;;;5069781;28;20200;-62
2021/12/10 00:57:43;;;;;;;9.17;3.27;;;4.40;99.90;;;;;;5068688;28;20231;-62
2021/12/10 01:00:16;;;;;;;5.93;3.20;;;4.40;99.90;;;;;;5068813;28;20250;-62
2021/12/10 01:03:09;;;;;;;9.73;3.27;;;4.50;99.90;;;;;;5070506;28;20656;-62
2021/12/10 01:05:42;;;;;;;8.43;3.70;;;4.50;99.90;;;;;;5071356;28;20684;-62
2021/12/10 01:08:11;;;;;;;6.53;3.70;;;4.50;99.90;;;;;;5070858;28;20750;-62
2021/12/10 01:10:46;;;;;;;8.00;3.93;;;4.50;99.90;;;;;;5067174;28;20188;-62
2021/12/10 01:13:26;;;;;;;10.37;3.50;;;4.50;99.90;;;;;;5066336;28;20208;-62
2021/12/10 01:16:13;;;;;;;5.43;3.13;;;4.50;99.90;;;;;;5063034;28;20717;-62
2021/12/10 01:24:35;;;;;;;12.10;3.90;;;4.50;99.90;;;;;;5066491;28;20758;-62
2021/12/10 01:27:12;;;;;;;8.13;3.10;;;4.50;99.90;;;;;;5064219;28;20239;-63
2021/12/10 01:29:44;;;;;;;9.43;3.87;;;4.50;99.90;;;;;;5067088;28;20610;-63
2021/12/10 01:32:20;;;;;;;10.17;3.27;;;4.50;99.90;;;;;;5076041;28;20210;-62
2021/12/10 01:34:50;;;;;;;8.63;3.37;;;4.50;99.90;;;;;;5070656;28;20293;-62
2021/12/10 01:37:19;;;;;;;9.13;3.17;;;4.60;99.90;;;;;;5089166;28;20198;-62
2021/12/10 01:39:48;;;;;;;8.43;3.40;;;4.60;99.90;;;;;;5080171;28;20247;-62
2021/12/10 01:42:31;;;;;;;9.70;4.30;;;4.60;99.90;;;;;;5064951;28;20208;-62
2021/12/10 01:45:16;;;;;;;7.63;3.10;;;4.60;99.90;;;;;;5067478;28;20243;-63
2021/12/10 01:47:48;;;;;;;6.67;3.10;;;4.60;99.90;;;;;;5068922;28;20196;-62
2021/12/10 01:50:17;;;;;;;3.60;3.13;;;4.60;99.90;;;;;;5078109;28;20671;-62
2021/12/10 01:52:50;;;;;;;3.40;3.00;;;4.60;99.90;;;;;;5057328;28;20208;-62
2021/12/10 01:55:21;;;;;;;5.87;3.00;;;4.60;99.90;;;;;;5064729;28;20188;-62
2021/12/10 01:57:52;;;;;;;4.27;2.77;;;4.60;99.90;;;;;;5064511;28;20271;-62
2021/12/10 02:00:26;;;;;;;6.63;2.83;;;4.50;99.90;;;;;;5066615;28;20700;-62
2021/12/10 02:02:57;;;;;;;4.63;2.93;;;4.50;99.90;;;;;;5062896;28;20203;-62
2021/12/10 02:05:27;;;;;;;3.47;2.50;;;4.50;99.90;;;;;;5064130;28;20204;-62
2021/12/10 02:07:58;;;;;;;5.13;2.90;;;4.50;99.90;;;;;;5065582;28;20200;-62
2021/12/10 02:10:28;;;;;;;7.57;3.07;;;4.60;99.90;;;;;;5063645;28;20204;-62
2021/12/10 02:12:59;;;;;;;7.23;2.90;;;4.50;99.90;;;;;;5063187;28;20611;-62
2021/12/10 02:15:29;;;;;;;4.23;2.80;;;4.50;99.90;;;;;;5065426;28;20222;-62
2021/12/10 02:17:59;;;;;;;5.53;2.40;;;4.50;99.90;;;;;;5064113;28;20219;-62
2021/12/10 02:20:32;;;;;;;11.73;3.00;;;4.50;99.90;;;;;;5063875;28;20735;-63
2021/12/10 02:23:05;;;;;;;4.63;2.57;;;4.50;99.90;;;;;;5064150;28;20235;-62
2021/12/10 02:25:36;;;;;;;6.13;2.40;;;4.60;99.90;;;;;;5065053;28;20212;-62
2021/12/10 02:28:07;;;;;;;2.20;2.00;;;4.60;99.90;;;;;;5066090;28;20192;-63
2021/12/10 02:30:39;;;;;;;4.87;2.37;;;4.60;99.90;;;;;;5065192;28;20202;-62
2021/12/10 02:33:09;;;;;;;2.50;2.30;;;4.60;99.90;;;;;;5062264;28;20204;-63
2021/12/10 02:35:37;;;;;;;6.73;2.70;;;4.60;99.90;;;;;;5066472;28;20196;-62
2021/12/10 02:38:08;;;;;;;5.17;2.20;;;4.60;99.90;;;;;;5067417;28;20192;-62
2021/12/10 02:40:40;;;;;;;3.03;2.00;;;4.60;99.90;;;;;;5064359;28;20241;-62
2021/12/10 02:43:11;;;;;;;4.63;2.10;;;4.60;99.90;;;;;;5065597;28;20200;-62
2021/12/10 02:45:42;;;;;;;4.43;2.40;;;4.60;99.90;;;;;;5066338;28;20224;-62
2021/12/10 02:48:11;;;;;;;3.47;2.00;;;4.60;99.90;;;;;;5065065;28;20196;-62
2021/12/10 02:50:44;;;;;;;3.70;2.07;;;4.50;99.90;;;;;;5063629;28;20313;-62
2021/12/10 02:53:16;;;;;;;2.37;1.90;;;4.50;99.90;;;;;;5063838;28;20202;-62
2021/12/10 02:55:45;;;;;;;4.90;1.90;;;4.50;99.90;;;;;;5064817;28;20253;-62
2021/12/10 02:58:14;;;;;;;5.90;2.13;;;4.50;99.90;;;;;;5062955;28;20203;-62
2021/12/10 03:00:48;;;;;;;4.23;2.23;;;4.50;99.90;;;;;;5063319;28;20283;-62
2021/12/10 03:03:17;;;;;;;5.83;2.10;;;4.40;99.90;;;;;;5061987;28;20200;-63
2021/12/10 03:05:46;;;;;;;4.23;1.80;;;4.40;99.90;;;;;;5069528;28;20678;-62
2021/12/10 03:08:16;;;;;;;2.83;1.80;;;4.30;99.90;;;;;;5066299;28;20207;-62
2021/12/10 03:10:46;;;;;;;3.37;1.40;;;4.30;99.90;;;;;;5079604;28;20199;-62
2021/12/10 03:13:17;;;;;;;2.13;1.90;;;4.30;99.90;;;;;;5065489;28;20227;-62
2021/12/10 03:15:46;;;;;;;7.93;2.30;;;4.30;99.90;;;;;;5069606;28;20201;-62
2021/12/10 03:18:18;;;;;;;5.37;1.73;;;4.20;99.90;;;;;;5067168;28;20236;-62
2021/12/10 03:20:47;;;;;;;3.40;2.00;;;4.20;99.90;;;;;;5080036;28;20730;-62
2021/12/10 03:23:17;;;;;;;3.37;1.70;;;4.20;99.90;;;;;;5066094;28;20204;-63
2021/12/10 03:25:46;;;;;;;1.80;1.70;;;4.20;99.90;;;;;;5069028;28;20227;-62
2021/12/10 03:28:15;;;;;;;4.83;1.63;;;4.10;99.90;;;;;;5064347;28;20215;-63
2021/12/10 03:30:49;;;;;;;1.80;1.70;;;4.10;99.90;;;;;;5066975;28;20192;-62
2021/12/10 03:33:20;;;;;;;1.63;1.50;;;4.10;99.90;;;;;;5065001;28;20196;-62
2021/12/10 03:35:50;;;;;;;2.33;1.60;;;4.00;99.90;;;;;;5064939;28;20220;-63
2021/12/10 03:38:24;;;;;;;1.70;1.60;;;4.00;99.90;;;;;;5060409;28;20310;-63
2021/12/10 03:40:54;;;;;;;1.50;1.50;;;3.90;99.90;;;;;;5066472;28;20231;-63
2021/12/10 03:43:23;;;;;;;3.47;1.80;;;4.00;99.90;;;;;;5068807;28;20199;-62
2021/12/10 03:45:55;;;;;;;2.20;1.63;;;3.90;99.90;;;;;;5065619;28;20223;-63
2021/12/10 03:48:27;;;;;;;3.27;1.77;;;3.90;99.90;;;;;;5062555;28;20193;-63
2021/12/10 03:50:58;;;;;;;4.63;1.73;;;3.80;99.90;;;;;;5065370;28;20926;-63
2021/12/10 03:53:28;;;;;;;2.70;1.83;;;3.80;99.90;;;;;;5069173;28;20203;-63
2021/12/10 03:56:01;;;;;;;1.80;1.40;;;3.80;99.90;;;;;;5068101;28;20204;-62
2021/12/10 03:58:29;;;;;;;2.37;2.03;;;3.80;99.90;;;;;;5065863;28;20200;-62
2021/12/10 04:01:00;;;;;;;5.17;1.70;;;3.80;99.90;;;;;;5064001;28;20250;-63
2021/12/10 04:03:31;;;;;;;4.00;2.57;;;3.70;99.90;;;;;;5069793;28;20192;-62
2021/12/10 04:06:03;;;;;;;3.80;2.47;;;3.70;99.90;;;;;;5065861;28;20232;-62
2021/12/10 04:08:34;;;;;;;11.33;3.87;;;3.70;99.90;;;;;;5060095;28;20204;-62
2021/12/10 04:11:07;;;;;;;4.00;1.80;;;3.70;99.90;;;;;;5069235;28;20192;-63
2021/12/10 04:13:40;;;;;;;1.63;1.53;;;3.60;99.90;;;;;;5068892;28;20211;-63
2021/12/10 04:16:09;;;;;;;1.90;1.70;;;3.60;99.90;;;;;;5068013;28;20254;-62
2021/12/10 04:18:39;;;;;;;3.10;1.30;;;3.60;99.90;;;;;;5068584;28;20204;-62
2021/12/10 04:21:13;;;;;;;2.00;1.50;;;3.60;99.90;;;;;;5068178;28;20594;-62
2021/12/10 04:23:43;;;;;;;3.70;1.57;;;3.50;99.90;;;;;;5071172;28;20220;-62
2021/12/10 04:26:13;;;;;;;1.50;1.40;;;3.50;99.90;;;;;;5067755;28;20208;-62
2021/12/10 04:28:42;;;;;;;2.00;1.90;;;3.50;99.90;;;;;;5066612;28;20207;-62
2021/12/10 04:31:14;;;;;;;1.97;1.40;;;3.50;99.90;;;;;;5065205;28;20184;-62
2021/12/10 04:33:43;;;;;;;2.33;1.93;;;3.50;99.90;;;;;;5065215;28;20253;-63
2021/12/10 04:36:13;;;;;;;1.50;1.40;;;3.50;99.90;;;;;;5082391;28;20212;-63
2021/12/10 04:38:44;;;;;;;1.63;1.40;;;3.40;99.90;;;;;;5064460;28;20850;-63
2021/12/10 04:41:13;;;;;;;2.67;1.40;;;3.40;99.90;;;;;;5065371;28;20262;-63
2021/12/10 04:43:44;;;;;;;1.43;1.40;;;3.40;99.90;;;;;;5059153;28;20200;-63
2021/12/10 04:46:12;;;;;;;4.30;2.27;;;3.40;99.90;;;;;;5071846;28;20291;-62
2021/12/10 04:48:51;;;;;;;3.80;2.30;;;3.40;99.90;;;;;;5070659;28;20231;-62
2021/12/10 04:51:23;;;;;;;1.80;1.70;;;3.40;99.90;;;;;;5066713;28;20226;-63
2021/12/10 04:53:55;;;;;;;1.37;1.37;;;3.40;99.90;;;;;;5061603;28;20203;-62
2021/12/10 04:56:29;;;;;;;2.20;1.43;;;3.40;99.90;;;;;;5059122;28;20183;-63
2021/12/10 04:58:59;;;;;;;1.70;1.60;;;3.30;99.90;;;;;;5065750;28;20200;-62
2021/12/10 05:01:28;;;;;;;2.70;2.47;;;3.30;99.90;;;;;;5068739;28;20203;-63
2021/12/10 05:03:57;;;;;;;1.23;1.23;;;3.30;99.90;;;;;;5067277;28;20198;-62
2021/12/10 05:06:25;;;;;;;1.47;1.43;;;3.30;99.90;;;;;;5062035;28;20248;-62
2021/12/10 05:08:55;;;;;;;2.10;2.00;;;3.30;99.90;;;;;;5065858;28;20200;-63
2021/12/10 05:11:24;;;;;;;1.20;1.20;;;3.20;99.90;;;;;;5078688;28;20197;-63
2021/12/10 05:13:52;;;;;;;1.50;1.50;;;3.20;99.90;;;;;;5063613;28;20197;-62
2021/12/10 05:16:25;;;;;;;3.00;1.60;;;3.30;99.90;;;;;;5064586;28;20227;-63
2021/12/10 05:18:59;;;;;;;1.20;1.20;;;3.20;99.90;;;;;;5067589;28;20273;-62
2021/12/10 05:21:30;;;;;;;1.47;1.37;;;3.20;99.90;;;;;;5065994;28;20201;-63
2021/12/10 05:24:01;;;;;;;1.20;1.20;;;3.20;99.90;;;;;;5068995;28;20200;-62
2021/12/10 05:26:30;;;;;;;1.70;1.70;;;3.20;99.90;;;;;;5065970;28;20220;-62
2021/12/10 05:28:59;;;;;;;1.20;1.20;;;3.10;99.90;;;;;;5066008;28;20221;-62
2021/12/10 05:31:32;;;;;;;1.93;1.73;;;3.10;99.90;;;;;;5079725;28;20199;-62
2021/12/10 05:34:01;;;;;;;1.67;1.60;;;3.10;99.90;;;;;;5064636;28;20196;-62
2021/12/10 05:36:29;;;;;;;2.47;1.40;;;3.00;99.90;;;;;;5067796;28;20196;-63
2021/12/10 05:39:00;;;;;;;1.40;1.40;;;3.00;99.90;;;;;;5064850;28;20261;-63
2021/12/10 05:41:28;;;;;;;2.40;1.50;;;3.00;99.90;;;;;;5064958;28;20208;-62
2021/12/10 05:43:56;;;;;;;1.20;1.20;;;3.00;99.90;;;;;;5066211;28;20663;-63
2021/12/10 05:46:25;;;;;;;1.90;1.30;;;3.00;99.90;;;;;;5064357;28;20250;-63
2021/12/10 05:48:54;;;;;;;2.23;1.30;;;2.90;99.90;;;;;;5060170;28;20560;-62
2021/12/10 05:51:25;;;;;;;1.43;1.40;;;2.90;99.90;;;;;;5059629;28;20200;-62
2021/12/10 05:53:56;;;;;;;1.00;1.00;;;2.90;99.90;;;;;;5069727;28;20195;-62
2021/12/10 05:56:26;;;;;;;1.60;1.30;;;2.80;99.90;;;;;;5061460;28;20200;-62
2021/12/10 05:58:55;;;;;;;1.23;1.23;;;2.70;99.90;;;;;;5067468;28;20197;-62
2021/12/10 06:01:25;;;;;;;1.37;1.37;;;2.70;99.90;;;;;;5063381;28;20215;-63
2021/12/10 06:04:31;;;;;;;1.50;1.40;;;2.70;99.90;;;;;;5062594;28;20569;-62
2021/12/10 06:07:38;;;;;;;1.50;1.40;;;2.70;99.90;;;;;;5064491;28;20295;-62
2021/12/10 06:10:09;;;;;;;1.30;1.30;;;2.70;99.90;;;;;;5060081;28;20203;-62
2021/12/10 06:12:40;;;;;;;1.63;1.57;;;2.60;99.90;;;;;;5065042;28;20200;-62
2021/12/10 06:15:10;;;;;;;1.40;1.30;;;2.60;99.90;;;;;;5060586;28;20196;-62
2021/12/10 06:17:38;;;;;;;1.40;1.40;;;2.50;99.90;;;;;;5077651;28;20241;-62
2021/12/10 06:20:10;;;;;;;1.30;1.30;;;2.50;99.90;;;;;;5067264;28;20911;-63
2021/12/10 06:22:38;;;;;;;1.43;1.40;;;2.50;99.90;;;;;;5066641;28;20224;-62
2021/12/10 06:25:08;;;;;;;1.70;1.60;;;2.50;99.90;;;;;;5068261;28;20719;-63
2021/12/10 06:27:38;;;;;;;1.50;1.50;;;2.50;99.90;;;;;;5067571;28;20258;-62
2021/12/10 06:30:10;;;;;;;1.70;1.60;;;2.50;99.90;;;;;;5067369;28;20196;-63
2021/12/10 06:32:38;;;;;;;1.30;1.30;;;2.50;99.90;;;;;;5067363;28;20230;-62
2021/12/10 06:35:08;;;;;;;1.50;1.50;;;2.50;99.90;;;;;;5062713;28;20564;-61
2021/12/10 06:37:37;;;;;;;1.40;1.40;;;2.50;99.90;;;;;;5063857;28;20278;-62
2021/12/10 06:40:08;;;;;;;1.80;1.60;;;2.50;99.90;;;;;;5067116;28;20232;-63
2021/12/10 06:42:37;;;;;;;2.70;1.70;;;2.50;99.90;;;;;;5063501;28;20660;-62
2021/12/10 06:45:12;;;;;;;1.70;1.70;;;2.50;99.90;;;;;;5066232;28;20235;-62
2021/12/10 06:47:44;;;;;;;1.70;1.60;;;2.50;99.90;;;;;;5064496;28;20767;-62
2021/12/10 06:50:13;;;;;;;1.70;1.40;;;2.50;99.90;;;;;;5066492;28;20598;-63
2021/12/10 06:52:41;;;;;;;1.10;1.10;;;2.50;99.90;;;;;;5063722;28;20598;-62
2021/12/10 06:55:11;;;;;;;1.97;1.53;;;2.40;99.90;;;;;;5062065;28;20195;-62
2021/12/10 06:57:40;;;;;;;1.50;1.47;;;2.40;99.90;;;;;;5080339;28;20549;-62
2021/12/10 07:00:14;;;;;;;2.17;1.80;;;2.40;99.90;;;;;;5064484;28;20204;-62
2021/12/10 07:02:44;;;;;;;1.80;1.80;;;2.40;99.90;;;;;;5065289;28;20226;-63
2021/12/10 07:05:13;;;;;;;1.90;1.60;;;2.40;99.90;;;;;;5066350;28;20211;-62
2021/12/10 07:07:42;;;;;;;1.90;1.80;;;2.30;99.90;;;;;;5057047;28;20249;-62
2021/12/10 07:10:13;;;;;;;2.37;2.00;;;2.30;99.90;;;;;;5056575;28;20245;-62
2021/12/10 07:12:43;;;;;;;2.20;2.10;;;2.20;99.90;;;;;;5063787;28;20602;-62
2021/12/10 07:15:15;;;;;;;1.77;1.77;;;2.30;99.90;;;;;;5066287;28;20794;-62
2021/12/10 07:17:49;;;;;;;2.57;2.30;;;2.30;99.90;;;;;;5072356;28;20328;-62
2021/12/10 07:20:20;;;;;;;2.50;2.40;;;2.30;99.90;;;;;;5063165;28;20192;-62
2021/12/10 07:22:49;;;;;;;2.70;2.60;;;2.30;99.90;;;;;;5066642;28;20611;-62
2021/12/10 07:25:20;;;;;;;2.70;2.50;;;2.20;99.90;;;;;;5066920;28;20207;-64
2021/12/10 07:27:49;;;;;;;3.93;3.70;;;2.20;99.90;;;;;;5066935;28;21097;-62
2021/12/10 07:30:22;;;;;;;4.33;3.60;;;2.20;99.90;;;;;;5063282;28;20212;-63
2021/12/10 07:32:51;;;;;;;1.73;1.73;;;2.20;99.90;;;;;;5065633;28;20282;-62
2021/12/10 07:35:20;;;;;;;2.93;2.83;;;2.20;99.90;;;;;;5066971;28;20741;-62
2021/12/10 07:37:51;;;;;;;2.50;2.40;;;2.20;99.90;;;;;;5066427;28;20660;-62
2021/12/10 07:40:27;;;;;;;3.27;3.07;;;2.20;99.90;;;;;;5059058;28;20270;-63
2021/12/10 07:42:55;;;;;;;3.20;2.60;;;2.10;99.90;;;;;;5067856;28;20188;-62
2021/12/10 07:45:26;;;;;;;2.93;2.83;;;2.10;99.90;;;;;;5051141;28;20780;-63
2021/12/10 07:47:56;;;;;;;3.33;3.13;;;2.10;99.90;;;;;;5061919;28;20269;-62
2021/12/10 07:50:28;;;;;;;2.37;2.30;;;2.10;99.90;;;;;;5063595;28;20204;-62
2021/12/10 07:52:57;;;;;;;2.67;2.40;;;2.20;99.90;;;;;;5070788;28;20221;-63
2021/12/10 07:55:28;;;;;;;2.53;2.33;;;2.10;99.90;;;;;;5070736;28;21034;-62
2021/12/10 07:57:57;;;;;;;4.97;4.57;;;2.10;99.90;;;;;;5072311;28;20239;-62
2021/12/10 08:00:33;;;;;;;2.60;2.50;;;2.10;99.90;;;;;;5069155;28;20192;-62
2021/12/10 08:03:02;;;;;;;3.20;3.10;;;2.10;99.90;;;;;;5062854;28;20278;-62
2021/12/10 08:05:31;;;;;;;2.73;2.53;;;2.10;99.90;;;;;;5065455;28;20230;-63
2021/12/10 08:08:00;;;;;;;3.30;3.10;;;2.10;99.90;;;;;;5065358;28;20224;-62
2021/12/10 08:10:30;;;;;;;3.47;3.20;;;2.10;99.90;;;;;;5066706;28;20230;-62
2021/12/10 08:12:59;;;;;;;3.60;3.40;;;2.10;99.90;;;;;;5067962;28;20578;-63
2021/12/10 08:15:28;;;;;;;5.17;4.07;;;2.10;99.90;;;;;;5068436;28;20669;-63
2021/12/10 08:17:57;;;;;;;6.53;3.30;;;2.10;99.90;;;;;;5065896;28;20205;-63
2021/12/10 08:20:28;;;;;;;3.90;3.60;;;2.10;99.90;;;;;;5066579;28;20196;-62
2021/12/10 08:22:56;;;;;;;3.50;3.30;;;2.10;99.90;;;;;;5061978;28;20196;-63
2021/12/10 08:25:27;;;;;;;2.70;2.60;;;2.10;99.90;;;;;;5065041;28;20208;-62
2021/12/10 08:27:57;;;;;;;4.97;3.70;;;2.20;99.90;;;;;;5062565;28;20199;-62
2021/12/10 08:30:29;;;;;;;4.80;4.30;;;2.10;99.90;;;;;;5071889;28;21041;-63
2021/12/10 08:32:59;;;;;;;4.80;4.50;;;2.10;99.90;;;;;;5067252;28;20636;-62
2021/12/10 08:35:31;;;;;;;6.97;5.93;;;2.10;99.90;;;;;;5065072;28;20212;-62
2021/12/10 08:38:02;;;;;;;4.67;4.17;;;2.10;99.90;;;;;;5064625;28;20184;-62
2021/12/10 08:40:33;;;;;;;6.00;3.73;;;2.10;99.90;;;;;;5059946;28;20591;-62
2021/12/10 08:43:02;;;;;;;4.10;3.90;;;2.00;99.90;;;;;;5066997;28;20196;-62
2021/12/10 08:45:33;;;;;;;3.60;3.40;;;2.00;99.90;;;;;;5066409;28;20822;-62
2021/12/10 08:48:02;;;;;;;3.97;3.67;;;2.00;99.90;;;;;;5064920;28;20252;-62
2021/12/10 08:50:34;;;;;;;4.10;3.87;;;2.00;99.90;;;;;;5061492;28;20219;-62
2021/12/10 08:53:06;;;;;;;3.93;3.63;;;2.00;99.90;;;;;;5064027;28;20891;-63
2021/12/10 08:55:37;;;;;;;4.50;4.20;;;2.00;99.90;;;;;;5063678;28;20204;-63
2021/12/10 08:58:06;;;;;;;4.47;4.07;;;2.10;99.90;;;;;;5065695;28;20196;-63
2021/12/10 09:00:39;;;;;;;4.63;4.33;;;2.00;99.90;;;;;;5066426;28;21077;-64
2021/12/10 09:03:08;;;;;;;5.67;5.20;;;2.00;99.90;;;;;;5063624;28;20184;-64
2021/12/10 09:05:39;;;;;;;5.13;4.73;;;2.00;99.90;;;;;;5068490;28;20204;-64
2021/12/10 09:08:11;;;;;;;7.53;5.70;;;2.00;99.90;;;;;;5061011;28;20196;-63
2021/12/10 09:10:42;;;;;;;6.03;5.40;;;2.00;99.90;;;;;;5066768;28;20239;-63
2021/12/10 09:13:15;;;;;;;4.57;4.27;;;2.00;99.90;;;;;;5065892;28;20227;-63
2021/12/10 09:15:48;;;;;;;4.37;4.07;;;1.90;99.90;;;;;;5069678;28;20215;-63
2021/12/10 09:18:17;;;;;;;5.03;4.53;;;1.90;99.90;;;;;;5066725;28;20223;-63
2021/12/10 09:20:49;;;;;;;6.90;4.60;;;1.90;99.90;;;;;;5067702;28;20285;-64
2021/12/10 09:23:22;;;;;;;5.40;5.00;;;1.90;99.90;;;;;;5064487;28;20184;-64
2021/12/10 09:26:04;;;;;;;11.53;9.37;;;1.80;99.90;;;;;;5069938;28;20260;-62
2021/12/10 09:28:33;;;;;;;5.53;5.10;;;1.80;99.90;;;;;;5073430;28;20703;-64
2021/12/10 09:31:05;;;;;;;4.47;4.17;;;1.70;99.90;;;;;;5067251;28;20203;-64
2021/12/10 09:33:34;;;;;;;4.73;4.40;;;1.80;99.90;;;;;;5064346;28;20196;-64
2021/12/10 09:36:04;;;;;;;4.60;4.30;;;1.80;99.90;;;;;;5065603;28;20219;-64
2021/12/10 09:38:33;;;;;;;6.57;5.73;;;1.80;99.90;;;;;;5063502;28;20203;-64
2021/12/10 09:41:05;;;;;;;7.33;5.80;;;1.90;99.90;;;;;;5063164;28;20274;-64
2021/12/10 09:43:34;;;;;;;6.60;4.60;;;1.90;99.90;;;;;;5063626;28;20199;-64
2021/12/10 09:46:05;;;;;;;5.37;4.87;;;1.90;99.90;;;;;;5064649;28;20208;-64
2021/12/10 09:48:34;;;;;;;5.57;5.00;;;1.90;99.90;;;;;;5064155;28;20199;-64
2021/12/10 09:51:10;;;;;;;5.23;4.83;;;1.90;99.90;;;;;;5059933;28;20279;-63
2021/12/10 09:53:42;;;;;;;5.83;5.30;;;1.90;99.90;;;;;;5054232;28;20254;-64
2021/12/10 09:56:12;;;;;;;6.07;5.50;;;1.90;99.90;;;;;;5065294;28;20212;-64
2021/12/10 09:58:40;;;;;;;8.07;6.57;;;1.90;99.90;;;;;;5059208;28;20295;-64
2021/12/10 10:01:14;;;;;;;14.03;8.37;;;1.90;99.90;;;;;;5068076;28;20249;-63
2021/12/10 10:03:47;;;;;;;17.60;9.40;;;1.80;99.90;;;;;;5065237;28;20224;-63
2021/12/10 10:06:17;;;;;;;15.40;7.97;;;1.80;99.90;;;;;;5064114;28;20188;-64
2021/12/10 10:08:47;;;;;;;10.40;7.57;;;1.80;99.90;;;;;;5062792;28;20192;-64
2021/12/10 10:11:34;;;;;;;8.57;7.47;;;1.70;99.90;;;;;;5063030;28;20196;-64
2021/12/10 10:14:04;;;;;;;10.30;7.93;;;1.60;99.90;;;;;;5064436;28;20620;-63
2021/12/10 10:16:39;;;;;;;8.23;6.67;;;1.60;99.90;;;;;;5058155;28;20224;-64
2021/12/10 10:19:08;;;;;;;7.33;6.20;;;1.50;99.90;;;;;;5068253;28;20196;-63
2021/12/10 10:21:40;;;;;;;6.87;6.17;;;1.50;99.90;;;;;;5067108;28;20704;-63
2021/12/10 10:24:10;;;;;;;5.77;5.33;;;1.50;99.90;;;;;;5056349;28;20600;-62
2021/12/10 10:26:43;;;;;;;10.27;6.40;;;1.50;99.90;;;;;;5062751;28;20202;-63
2021/12/10 10:29:14;;;;;;;8.47;6.67;;;1.40;99.90;;;;;;5061954;28;20270;-63
2021/12/10 10:31:49;;;;;;;7.97;6.47;;;1.40;99.90;;;;;;5061628;28;20199;-63
2021/12/10 10:34:21;;;;;;;6.73;6.03;;;1.40;99.90;;;;;;5066822;28;20750;-63
2021/12/10 10:36:50;;;;;;;6.37;5.70;;;1.30;99.90;;;;;;5079964;28;20200;-64
2021/12/10 10:39:21;;;;;;;7.10;6.13;;;1.40;99.90;;;;;;5062265;28;20247;-63
2021/12/10 10:41:54;;;;;;;7.33;6.63;;;1.40;99.90;;;;;;5065498;28;20500;-63
2021/12/10 10:44:24;;;;;;;6.63;5.93;;;1.40;99.90;;;;;;5051648;28;20626;-63
2021/12/10 10:46:57;;;;;;;7.90;5.90;;;1.40;99.90;;;;;;5081615;28;20188;-63
2021/12/10 10:49:35;;;;;;;7.13;5.83;;;1.30;99.90;;;;;;5064464;28;20299;-64
2021/12/10 10:52:20;;;;;;;8.00;6.43;;;1.30;99.90;;;;;;5066055;28;20208;-63
2021/12/10 10:54:50;;;;;;;10.50;6.27;;;1.30;99.90;;;;;;5062786;28;20238;-63
2021/12/10 10:57:24;;;;;;;8.37;7.30;;;1.30;99.90;;;;;;5059848;28;20824;-63
2021/12/10 10:59:57;;;;;;;8.00;7.13;;;1.30;99.90;;;;;;5060555;28;20210;-63
2021/12/10 11:02:39;;;;;;;11.53;7.83;;;1.40;99.90;;;;;;5071051;28;20187;-64
2021/12/10 11:05:11;;;;;;;10.63;8.03;;;1.40;99.90;;;;;;5055871;28;20234;-62
2021/12/10 11:07:46;;;;;;;15.03;10.60;;;1.40;99.90;;;;;;5061796;28;20257;-64
2021/12/10 11:10:25;;;;;;;11.07;8.63;;;1.50;99.90;;;;;;5057489;28;20948;-63
2021/12/10 11:12:54;;;;;;;13.07;8.77;;;1.50;99.90;;;;;;5063452;28;20200;-63
2021/12/10 11:15:23;;;;;;;9.97;8.03;;;1.50;99.90;;;;;;5065062;28;20226;-63
2021/12/10 11:17:55;;;;;;;11.93;8.77;;;1.50;99.90;;;;;;5062903;28;20204;-63
2021/12/10 11:20:28;;;;;;;12.83;9.37;;;1.50;99.90;;;;;;5064159;28;20606;-63
2021/12/10 11:22:59;;;;;;;13.40;9.27;;;1.50;99.90;;;;;;5077134;28;20196;-64
2021/12/10 11:25:31;;;;;;;11.00;8.73;;;1.60;99.90;;;;;;5062796;28;20234;-63
2021/12/10 11:28:05;;;;;;;13.57;10.60;;;1.60;99.90;;;;;;5065541;28;20727;-64
2021/12/10 11:30:34;;;;;;;13.87;10.03;;;1.70;99.90;;;;;;5077665;28;20261;-63
2021/12/10 11:33:11;;;;;;;21.67;12.40;;;1.70;99.90;;;;;;5065640;28;20576;-64
2021/12/10 11:35:43;;;;;;;21.30;12.33;;;1.70;99.90;;;;;;5064555;28;20210;-64
2021/12/10 11:38:14;;;;;;;16.83;11.17;;;1.80;99.90;;;;;;5066073;28;20222;-64
2021/12/10 11:40:49;;;;;;;22.43;12.97;;;1.80;99.90;;;;;;5064138;28;20231;-64
2021/12/10 11:43:44;;;;;;;15.57;11.27;;;1.80;99.90;;;;;;5064219;28;20693;-64
2021/12/10 11:46:43;;;;;;;16.87;11.30;;;1.80;99.90;;;;;;5056205;28;20193;-64
2021/12/10 11:49:18;;;;;;;20.47;12.83;;;1.80;99.90;;;;;;5065344;28;20200;-63
2021/12/10 11:51:49;;;;;;;17.73;10.93;;;1.80;99.90;;;;;;5063595;28;20243;-64
2021/12/10 11:54:24;;;;;;;14.13;10.40;;;1.90;99.90;;;;;;5065600;28;20605;-64
2021/12/10 11:56:57;;;;;;;13.67;9.67;;;1.90;99.90;;;;;;5064749;28;20826;-64
2021/12/10 11:59:28;;;;;;;18.30;9.50;;;1.90;99.90;;;;;;5063950;28;20204;-64
2021/12/10 12:01:59;;;;;;;15.77;10.63;;;2.00;99.90;;;;;;5058445;28;20180;-63
2021/12/10 12:04:33;;;;;;;14.80;10.33;;;2.00;99.90;;;;;;5062486;28;20215;-64
2021/12/10 12:07:26;;;;;;;14.50;10.50;;;2.00;99.90;;;;;;5059439;28;20258;-63
2021/12/10 12:09:57;;;;;;;16.83;10.73;;;2.00;99.90;;;;;;5065200;28;20679;-64
2021/12/10 12:12:27;;;;;;;16.80;11.37;;;2.10;99.90;;;;;;5064237;28;20279;-64
2021/12/10 12:15:13;;;;;;;19.63;11.50;;;2.20;99.90;;;;;;5064950;28;20191;-64
2021/12/10 12:17:44;;;;;;;17.20;11.40;;;2.20;99.90;;;;;;5067973;28;20591;-64
2021/12/10 12:20:34;;;;;;;17.00;11.03;;;2.20;99.90;;;;;;5065830;28;20196;-63
2021/12/10 12:25:59;;;;;;;17.77;10.83;;;2.20;99.90;;;;;;5084071;28;20228;-64
2021/12/10 12:28:40;;;;;;;21.47;11.63;;;2.20;99.90;;;;;;5065005;28;20222;-64
2021/12/10 12:31:34;;;;;;;10.97;8.57;;;2.20;99.90;;;;;;5059213;28;20456;-64
2021/12/10 12:34:07;;;;;;;11.17;8.00;;;2.30;99.90;;;;;;5065170;28;20587;-64
2021/12/10 12:36:40;;;;;;;9.23;7.23;;;2.30;99.90;;;;;;5061707;28;20220;-64
2021/12/10 12:39:15;;;;;;;8.50;7.27;;;2.30;99.90;;;;;;5062788;28;20319;-63
2021/12/10 12:41:46;;;;;;;9.27;7.20;;;2.20;99.90;;;;;;5062031;28;20473;-64
2021/12/10 12:44:19;;;;;;;9.17;7.53;;;2.20;99.90;;;;;;5064984;28;20184;-64
2021/12/10 12:47:13;;;;;;;8.97;7.00;;;2.20;99.90;;;;;;5060750;28;20285;-63
2021/12/10 12:50:10;;;;;;;8.70;7.03;;;2.20;99.90;;;;;;5069532;28;20513;-64
2021/12/10 12:52:44;;;;;;;11.07;7.30;;;2.20;99.90;;;;;;5063403;28;20211;-63
2021/12/10 12:55:37;;;;;;;11.87;8.30;;;2.20;99.90;;;;;;5062470;28;20203;-63
2021/12/10 12:58:17;;;;;;;11.60;8.97;;;2.10;99.90;;;;;;5066928;28;20192;-64
2021/12/10 13:01:13;;;;;;;10.93;8.43;;;2.00;99.90;;;;;;5065987;28;20200;-64
2021/12/10 13:03:46;;;;;;;11.93;8.60;;;2.00;99.90;;;;;;5065648;28;20273;-63
2021/12/10 13:06:39;;;;;;;13.03;8.47;;;2.00;99.90;;;;;;5066820;28;20207;-64
2021/12/10 13:09:17;;;;;;;13.03;8.60;;;1.90;99.90;;;;;;5067011;28;20617;-64
2021/12/10 13:11:53;;;;;;;14.43;9.10;;;1.80;99.90;;;;;;5083165;28;20299;-64
2021/12/10 13:14:26;;;;;;;13.73;9.77;;;1.80;99.90;;;;;;5060799;28;20192;-64
2021/12/10 13:16:58;;;;;;;14.83;9.47;;;1.80;99.90;;;;;;5067493;28;20192;-64
2021/12/10 13:19:31;;;;;;;15.67;9.70;;;1.80;99.90;;;;;;5070524;28;20203;-64
2021/12/10 13:22:06;;;;;;;15.47;9.77;;;1.80;99.90;;;;;;5083502;28;20200;-64
2021/12/10 13:24:36;;;;;;;15.57;10.50;;;1.80;99.90;;;;;;5068259;28;20194;-64
2021/12/10 13:27:10;;;;;;;16.20;10.77;;;1.80;99.90;;;;;;5066520;28;20199;-64
2021/12/10 13:29:51;;;;;;;15.97;10.10;;;1.90;99.90;;;;;;5066512;28;20198;-64